Time;durP1;ratioP1;P1;durP2;ratioP2;P2;SDS_P1;SDS_P2;PMS_P1;PMS_P2;Temp;Humidity;BMP_temperature;BMP_pressure;BME280_temperature;BME280_humidity;BME280_pressure;Samples;Min_cycle;Max_cycle;Signal;HPM_P1;HPM_P2
2021/08/02 00:02:01;;;;;;;4.90;2.83;;;;;;;;;;5034165;28;20438;-60
2021/08/02 00:04:32;;;;;;;3.43;2.80;;;;;;;;;;5033407;28;20433;-59
2021/08/02 00:07:04;;;;;;;5.83;2.70;;;;;;;;;;5033010;28;20749;-59
2021/08/02 00:09:33;;;;;;;4.57;2.70;;;;;;;;;;5032870;28;20456;-60
2021/08/02 00:12:02;;;;;;;5.07;3.27;;;;;;;;;;5033248;28;20524;-59
2021/08/02 00:14:30;;;;;;;2.87;2.50;;;;;;;;;;5033164;28;20893;-59
2021/08/02 00:16:58;;;;;;;4.30;2.67;;;;;;;;;;5033287;28;20516;-59
2021/08/02 00:19:27;;;;;;;4.77;3.13;;;;;;;;;;5032743;28;20449;-60
2021/08/02 00:21:54;;;;;;;5.10;3.20;;;;;;;;;;5033156;28;20868;-59
2021/08/02 00:24:22;;;;;;;6.50;4.73;;;;;;;;;;5035612;28;20444;-59
2021/08/02 00:26:49;;;;;;;5.97;3.10;;;;;;;;;;5036907;28;20457;-59
2021/08/02 00:29:17;;;;;;;6.87;2.80;;;;;;;;;;5036809;28;20937;-59
2021/08/02 00:31:45;;;;;;;3.20;2.80;;;;;;;;;;5037038;28;20465;-59
2021/08/02 00:34:13;;;;;;;3.27;2.50;;;;;;;;;;5036632;28;20534;-59
2021/08/02 00:36:41;;;;;;;3.50;3.20;;;;;;;;;;5037079;28;20445;-59
2021/08/02 00:39:09;;;;;;;3.40;2.60;;;;;;;;;;5036825;28;21028;-59
2021/08/02 00:41:52;;;;;;;3.80;3.00;;;;;;;;;;5036827;28;20988;-59
2021/08/02 00:44:34;;;;;;;5.33;3.17;;;;;;;;;;5037058;28;20487;-59
2021/08/02 00:47:05;;;;;;;4.33;3.47;;;;;;;;;;5036923;28;20483;-59
2021/08/02 00:49:33;;;;;;;5.63;3.23;;;;;;;;;;5036836;28;20440;-60
2021/08/02 00:52:00;;;;;;;3.87;3.20;;;;;;;;;;5036875;28;20519;-59
2021/08/02 00:54:28;;;;;;;4.80;3.57;;;;;;;;;;5036265;28;20476;-59
2021/08/02 00:56:57;;;;;;;4.53;3.50;;;;;;;;;;5036666;28;20909;-59
2021/08/02 00:59:26;;;;;;;9.13;4.87;;;;;;;;;;5036461;28;20539;-60
2021/08/02 01:01:54;;;;;;;8.50;3.90;;;;;;;;;;5036283;28;20444;-59
2021/08/02 01:04:24;;;;;;;6.20;3.90;;;;;;;;;;5036230;28;20499;-59
2021/08/02 01:06:53;;;;;;;3.90;3.30;;;;;;;;;;5036630;28;20810;-59
2021/08/02 01:09:21;;;;;;;5.90;3.77;;;;;;;;;;5036476;28;20471;-59
2021/08/02 01:11:50;;;;;;;5.43;3.63;;;;;;;;;;5036022;28;20457;-59
2021/08/02 01:14:18;;;;;;;9.30;4.17;;;;;;;;;;5036009;28;20476;-59
2021/08/02 01:16:46;;;;;;;5.37;3.47;;;;;;;;;;5036660;28;20448;-59
2021/08/02 01:19:13;;;;;;;4.77;3.43;;;;;;;;;;5037369;28;20451;-59
2021/08/02 01:21:42;;;;;;;4.80;3.20;;;;;;;;;;5037105;28;20881;-58
2021/08/02 01:24:13;;;;;;;6.20;3.80;;;;;;;;;;5037508;28;20437;-59
2021/08/02 01:27:10;;;;;;;4.40;4.00;;;;;;;;;;5037434;28;20448;-59
2021/08/02 01:30:07;;;;;;;5.57;4.07;;;;;;;;;;5037398;28;20472;-60
2021/08/02 01:32:35;;;;;;;4.80;3.63;;;;;;;;;;4976344;28;20451;-59
2021/08/02 01:35:02;;;;;;;5.33;3.50;;;;;;;;;;5021933;28;20488;-59
2021/08/02 01:37:29;;;;;;;5.03;3.87;;;;;;;;;;5036055;28;20448;-59
2021/08/02 01:39:58;;;;;;;4.63;4.10;;;;;;;;;;5036336;28;20481;-59
2021/08/02 01:42:25;;;;;;;4.70;3.70;;;;;;;;;;5036899;28;20452;-59
2021/08/02 01:44:52;;;;;;;3.73;3.30;;;;;;;;;;5036057;28;20445;-59
2021/08/02 01:47:23;;;;;;;4.37;3.57;;;;;;;;;;5035508;28;20449;-59
2021/08/02 01:49:55;;;;;;;4.93;3.80;;;;;;;;;;5035543;28;20824;-60
2021/08/02 01:52:25;;;;;;;7.53;4.03;;;;;;;;;;5035582;28;20551;-59
2021/08/02 01:54:55;;;;;;;7.90;3.57;;;;;;;;;;5035881;28;20484;-59
2021/08/02 01:57:29;;;;;;;4.10;3.40;;;;;;;;;;5036008;28;20441;-59
2021/08/02 01:59:59;;;;;;;3.70;3.40;;;;;;;;;;5035369;28;20503;-60
2021/08/02 02:02:27;;;;;;;4.60;3.97;;;;;;;;;;5035811;28;20430;-59
2021/08/02 02:04:56;;;;;;;6.90;3.40;;;;;;;;;;5035638;28;20495;-59
2021/08/02 02:07:24;;;;;;;4.43;3.33;;;;;;;;;;5035590;28;20500;-59
2021/08/02 02:09:51;;;;;;;5.43;4.17;;;;;;;;;;5035181;28;20948;-59
2021/08/02 02:12:19;;;;;;;5.43;3.67;;;;;;;;;;5035699;28;20901;-59
2021/08/02 02:14:48;;;;;;;4.70;4.07;;;;;;;;;;5035947;28;20477;-59
2021/08/02 02:17:16;;;;;;;6.80;4.37;;;;;;;;;;5036377;28;20506;-59
2021/08/02 02:19:43;;;;;;;5.07;3.80;;;;;;;;;;5036183;28;20465;-59
2021/08/02 02:22:11;;;;;;;5.43;4.03;;;;;;;;;;5035678;28;20449;-59
2021/08/02 02:24:39;;;;;;;5.20;4.00;;;;;;;;;;5035624;28;20503;-59
2021/08/02 02:27:07;;;;;;;6.47;4.43;;;;;;;;;;5034688;28;20499;-59
2021/08/02 02:29:35;;;;;;;6.23;3.87;;;;;;;;;;5034942;28;20503;-59
2021/08/02 02:32:05;;;;;;;4.60;3.80;;;;;;;;;;5034931;28;20503;-59
2021/08/02 02:34:32;;;;;;;5.20;4.70;;;;;;;;;;5034518;28;20499;-59
2021/08/02 02:36:59;;;;;;;6.73;4.13;;;;;;;;;;5034764;28;20502;-59
2021/08/02 02:39:27;;;;;;;7.33;4.00;;;;;;;;;;5034311;28;20941;-60
2021/08/02 02:41:56;;;;;;;5.53;4.10;;;;;;;;;;5034345;28;20499;-59
2021/08/02 02:44:23;;;;;;;6.27;4.30;;;;;;;;;;5034413;28;20468;-58
2021/08/02 02:46:51;;;;;;;5.87;4.30;;;;;;;;;;5033290;28;20863;-59
2021/08/02 02:49:20;;;;;;;5.63;4.17;;;;;;;;;;5034224;28;20441;-59
2021/08/02 02:51:48;;;;;;;4.53;3.93;;;;;;;;;;5034301;28;21003;-59
2021/08/02 02:54:17;;;;;;;7.03;4.60;;;;;;;;;;5034450;28;20473;-59
2021/08/02 02:56:44;;;;;;;6.27;4.07;;;;;;;;;;5034207;28;20510;-59
2021/08/02 02:59:11;;;;;;;7.70;4.63;;;;;;;;;;5034424;28;20448;-59
2021/08/02 03:01:39;;;;;;;8.90;5.07;;;;;;;;;;5034276;28;20465;-59
2021/08/02 03:04:07;;;;;;;6.37;4.33;;;;;;;;;;5034154;28;20999;-59
2021/08/02 03:06:36;;;;;;;7.30;3.80;;;;;;;;;;5034329;28;20514;-59
2021/08/02 03:09:04;;;;;;;7.60;4.73;;;;;;;;;;5034204;28;20445;-59
2021/08/02 03:11:32;;;;;;;6.80;4.40;;;;;;;;;;5035320;28;20472;-59
2021/08/02 03:13:59;;;;;;;5.90;4.20;;;;;;;;;;5034453;28;20477;-59
2021/08/02 03:16:26;;;;;;;6.77;4.00;;;;;;;;;;5034566;28;20499;-59
2021/08/02 03:18:54;;;;;;;6.17;4.43;;;;;;;;;;5034205;28;20495;-59
2021/08/02 03:21:22;;;;;;;4.43;3.53;;;;;;;;;;5034017;28;20981;-59
2021/08/02 03:23:54;;;;;;;7.63;4.47;;;;;;;;;;5033892;28;20475;-59
2021/08/02 03:26:25;;;;;;;7.97;3.90;;;;;;;;;;5034081;28;20495;-59
2021/08/02 03:28:55;;;;;;;6.70;4.20;;;;;;;;;;5033888;28;20437;-59
2021/08/02 03:31:25;;;;;;;5.83;3.90;;;;;;;;;;5033518;28;20465;-59
2021/08/02 03:33:54;;;;;;;6.50;4.43;;;;;;;;;;5033721;28;20481;-59
2021/08/02 03:36:22;;;;;;;8.27;4.03;;;;;;;;;;5033727;28;20453;-59
2021/08/02 03:38:50;;;;;;;5.20;4.40;;;;;;;;;;5034668;28;20467;-59
2021/08/02 03:41:20;;;;;;;5.83;3.57;;;;;;;;;;5033595;28;20503;-59
2021/08/02 03:43:47;;;;;;;5.43;4.07;;;;;;;;;;5033803;28;20495;-59
2021/08/02 03:46:15;;;;;;;5.97;4.60;;;;;;;;;;5033463;28;20941;-59
2021/08/02 03:48:43;;;;;;;5.40;3.77;;;;;;;;;;5033718;28;20495;-59
2021/08/02 03:51:10;;;;;;;7.30;3.60;;;;;;;;;;5033268;28;21005;-59
2021/08/02 03:53:41;;;;;;;5.80;3.30;;;;;;;;;;5033197;28;20449;-59
2021/08/02 03:56:09;;;;;;;6.33;3.80;;;;;;;;;;5033224;28;20522;-60
2021/08/02 03:58:37;;;;;;;6.07;2.90;;;;;;;;;;5032878;28;20540;-59
2021/08/02 04:01:05;;;;;;;11.03;3.60;;;;;;;;;;5033002;28;20511;-59
2021/08/02 04:03:32;;;;;;;6.40;3.20;;;;;;;;;;5033344;28;20449;-59
2021/08/02 04:08:24;;;;;;;4.50;2.97;;;;;;;;;;5091727;27;20545;-59
2021/08/02 04:10:51;;;;;;;3.77;2.80;;;;;;;;;;5090976;28;20819;-59
2021/08/02 04:13:19;;;;;;;5.00;3.30;;;;;;;;;;5090644;28;20492;-59
2021/08/02 04:15:46;;;;;;;6.53;3.23;;;;;;;;;;5090892;28;20537;-58
2021/08/02 04:18:13;;;;;;;3.83;2.87;;;;;;;;;;5090867;28;20527;-59
2021/08/02 04:20:42;;;;;;;4.73;3.53;;;;;;;;;;5090386;28;20877;-59
2021/08/02 04:23:10;;;;;;;4.27;3.07;;;;;;;;;;5090395;28;20446;-60
2021/08/02 04:25:38;;;;;;;4.83;2.90;;;;;;;;;;5090617;28;20439;-60
2021/08/02 04:28:06;;;;;;;4.40;2.33;;;;;;;;;;5091308;28;20474;-59
2021/08/02 04:30:33;;;;;;;4.90;2.47;;;;;;;;;;5090325;28;20549;-59
2021/08/02 04:33:00;;;;;;;3.27;1.70;;;;;;;;;;5090414;28;20504;-59
2021/08/02 04:35:28;;;;;;;6.63;2.20;;;;;;;;;;5090458;28;20453;-59
2021/08/02 04:37:55;;;;;;;6.70;2.40;;;;;;;;;;5090362;28;20495;-59
2021/08/02 04:40:22;;;;;;;6.40;2.27;;;;;;;;;;5090177;28;20462;-59
2021/08/02 04:42:51;;;;;;;3.27;2.00;;;;;;;;;;5090050;28;20434;-59
2021/08/02 04:45:18;;;;;;;2.07;1.60;;;;;;;;;;5089895;28;20922;-60
2021/08/02 04:47:45;;;;;;;3.60;1.83;;;;;;;;;;5090165;28;20474;-59
2021/08/02 04:50:13;;;;;;;3.87;1.90;;;;;;;;;;5089777;28;20516;-58
2021/08/02 04:52:42;;;;;;;5.10;1.80;;;;;;;;;;5090356;28;20438;-60
2021/08/02 04:55:10;;;;;;;5.40;1.93;;;;;;;;;;5090210;28;20454;-60
2021/08/02 04:57:37;;;;;;;4.47;2.00;;;;;;;;;;5089839;28;20487;-61
2021/08/02 05:00:07;;;;;;;1.77;1.60;;;;;;;;;;5089681;28;20470;-58
2021/08/02 05:02:34;;;;;;;3.20;1.60;;;;;;;;;;5090109;28;20735;-59
2021/08/02 05:05:01;;;;;;;2.83;1.40;;;;;;;;;;5090315;28;20503;-60
2021/08/02 05:07:29;;;;;;;3.23;2.20;;;;;;;;;;5095584;28;20572;-62
2021/08/02 05:09:56;;;;;;;3.07;1.83;;;;;;;;;;5096326;28;20470;-62
2021/08/02 05:12:23;;;;;;;8.00;1.60;;;;;;;;;;5096325;28;20453;-60
2021/08/02 05:14:51;;;;;;;3.97;1.60;;;;;;;;;;5093531;28;20453;-60
2021/08/02 05:17:19;;;;;;;2.47;1.57;;;;;;;;;;5091139;28;20438;-60
2021/08/02 05:19:47;;;;;;;2.00;1.40;;;;;;;;;;5076943;28;20584;-61
2021/08/02 05:22:14;;;;;;;3.83;1.40;;;;;;;;;;5077001;28;20497;-59
2021/08/02 05:24:41;;;;;;;2.30;1.30;;;;;;;;;;5077097;28;20447;-59
2021/08/02 05:27:08;;;;;;;7.50;2.10;;;;;;;;;;5077058;28;20887;-58
2021/08/02 05:29:35;;;;;;;5.13;1.60;;;;;;;;;;5076703;28;21119;-59
2021/08/02 05:32:03;;;;;;;2.23;1.50;;;;;;;;;;5076734;28;20496;-59
2021/08/02 05:34:31;;;;;;;4.00;1.63;;;;;;;;;;5076156;28;20443;-60
2021/08/02 05:36:59;;;;;;;2.40;1.20;;;;;;;;;;5076227;28;20439;-58
2021/08/02 05:39:26;;;;;;;6.30;2.03;;;;;;;;;;5076944;28;20500;-60
2021/08/02 05:41:53;;;;;;;2.67;2.00;;;;;;;;;;5075707;28;20931;-60
2021/08/02 05:44:20;;;;;;;5.77;1.80;;;;;;;;;;5076191;28;20451;-59
2021/08/02 05:46:48;;;;;;;6.47;1.70;;;;;;;;;;5075672;28;20990;-59
2021/08/02 05:49:15;;;;;;;3.20;1.60;;;;;;;;;;5075936;28;20451;-60
2021/08/02 05:51:43;;;;;;;3.70;1.47;;;;;;;;;;5076108;28;20517;-60
2021/08/02 05:54:11;;;;;;;5.70;1.90;;;;;;;;;;5075912;28;20982;-58
2021/08/02 05:56:38;;;;;;;4.90;1.73;;;;;;;;;;5076876;28;20488;-60
2021/08/02 05:59:05;;;;;;;4.67;1.50;;;;;;;;;;5082227;28;20439;-60
2021/08/02 06:01:32;;;;;;;3.43;1.70;;;;;;;;;;5080302;28;20493;-60
2021/08/02 06:04:00;;;;;;;3.20;1.90;;;;;;;;;;5075175;28;20447;-59
2021/08/02 06:06:27;;;;;;;3.37;1.67;;;;;;;;;;5075161;28;20955;-59
2021/08/02 06:08:55;;;;;;;4.63;1.27;;;;;;;;;;5075645;28;20467;-60
2021/08/02 06:11:23;;;;;;;3.67;1.20;;;;;;;;;;5075625;28;20512;-59
2021/08/02 06:13:50;;;;;;;5.27;2.03;;;;;;;;;;5075439;28;20465;-58
2021/08/02 06:16:21;;;;;;;2.17;1.50;;;;;;;;;;5075098;28;20820;-59
2021/08/02 06:18:48;;;;;;;4.40;2.00;;;;;;;;;;5075293;28;20895;-59
2021/08/02 06:21:15;;;;;;;1.80;1.63;;;;;;;;;;5075191;28;20573;-60
2021/08/02 06:23:43;;;;;;;4.20;1.33;;;;;;;;;;5075286;28;20448;-60
2021/08/02 06:26:11;;;;;;;6.20;1.43;;;;;;;;;;5075025;28;20863;-60
2021/08/02 06:28:39;;;;;;;2.37;1.67;;;;;;;;;;5075158;28;20476;-60
2021/08/02 06:31:06;;;;;;;3.53;1.70;;;;;;;;;;5074365;28;21048;-60
2021/08/02 06:33:33;;;;;;;2.93;1.60;;;;;;;;;;5075606;28;20443;-60
2021/08/02 06:36:00;;;;;;;4.90;2.30;;;;;;;;;;5075338;28;20501;-60
2021/08/02 06:38:32;;;;;;;3.10;1.50;;;;;;;;;;5074866;28;20468;-59
2021/08/02 06:40:59;;;;;;;2.70;1.40;;;;;;;;;;5074780;28;20507;-60
2021/08/02 06:43:28;;;;;;;4.23;1.77;;;;;;;;;;5074677;28;20447;-60
2021/08/02 06:45:55;;;;;;;2.83;1.87;;;;;;;;;;5074681;28;20849;-59
2021/08/02 06:48:22;;;;;;;3.20;1.93;;;;;;;;;;5074375;28;20549;-59
2021/08/02 06:50:50;;;;;;;4.23;1.67;;;;;;;;;;5074435;28;20463;-60
2021/08/02 06:53:18;;;;;;;4.97;1.93;;;;;;;;;;5074207;28;20931;-59
2021/08/02 06:55:47;;;;;;;4.27;1.80;;;;;;;;;;5074335;28;20455;-60
2021/08/02 06:58:14;;;;;;;2.87;2.60;;;;;;;;;;5074053;28;20447;-59
2021/08/02 07:00:43;;;;;;;6.57;2.10;;;;;;;;;;5074087;28;20464;-60
2021/08/02 07:03:10;;;;;;;3.27;1.43;;;;;;;;;;5074498;28;20846;-59
2021/08/02 07:05:37;;;;;;;4.10;1.60;;;;;;;;;;5074268;28;21003;-60
2021/08/02 07:08:05;;;;;;;3.93;1.40;;;;;;;;;;5073666;28;20486;-59
2021/08/02 07:10:32;;;;;;;7.60;1.97;;;;;;;;;;5074876;28;20467;-59
2021/08/02 07:12:59;;;;;;;4.83;1.57;;;;;;;;;;5074470;28;20447;-60
2021/08/02 07:15:27;;;;;;;4.20;1.57;;;;;;;;;;5074027;28;21015;-59
2021/08/02 07:17:55;;;;;;;5.20;1.57;;;;;;;;;;5075001;28;20503;-59
2021/08/02 07:20:23;;;;;;;4.03;1.90;;;;;;;;;;5075590;28;20882;-60
2021/08/02 07:22:51;;;;;;;3.77;1.40;;;;;;;;;;5074052;28;20439;-59
2021/08/02 07:25:18;;;;;;;3.73;1.50;;;;;;;;;;5076211;28;20486;-60
2021/08/02 07:27:45;;;;;;;3.47;2.00;;;;;;;;;;5075002;28;21007;-60
2021/08/02 07:30:13;;;;;;;8.20;1.87;;;;;;;;;;5075284;28;20500;-61
2021/08/02 07:32:40;;;;;;;3.63;1.40;;;;;;;;;;5078918;28;20447;-59
2021/08/02 07:35:09;;;;;;;5.33;1.60;;;;;;;;;;5079722;28;20446;-59
2021/08/02 07:37:40;;;;;;;3.60;1.50;;;;;;;;;;5077814;28;20791;-60
2021/08/02 07:40:08;;;;;;;3.90;1.93;;;;;;;;;;5075835;28;20471;-59
2021/08/02 07:42:35;;;;;;;4.43;1.53;;;;;;;;;;5075297;28;20443;-61
2021/08/02 07:45:02;;;;;;;5.03;1.77;;;;;;;;;;5075602;28;20443;-60
2021/08/02 07:47:29;;;;;;;5.77;1.30;;;;;;;;;;5075885;28;21002;-60
2021/08/02 07:49:57;;;;;;;5.70;1.50;;;;;;;;;;5077181;28;20459;-60
2021/08/02 07:52:25;;;;;;;4.80;1.63;;;;;;;;;;5079244;28;20497;-59
2021/08/02 07:54:53;;;;;;;4.90;1.70;;;;;;;;;;5075979;28;20501;-59
2021/08/02 07:57:20;;;;;;;2.87;1.57;;;;;;;;;;5076255;28;21007;-60
2021/08/02 07:59:47;;;;;;;4.73;1.47;;;;;;;;;;5074338;28;20459;-59
2021/08/02 08:02:14;;;;;;;7.30;1.90;;;;;;;;;;5075309;28;20451;-59
2021/08/02 08:04:42;;;;;;;3.97;1.40;;;;;;;;;;5075455;28;20520;-60
2021/08/02 08:07:09;;;;;;;3.37;1.60;;;;;;;;;;5074554;28;20455;-59
2021/08/02 08:09:37;;;;;;;3.10;1.77;;;;;;;;;;5074422;28;20443;-60
2021/08/02 08:12:05;;;;;;;2.23;1.30;;;;;;;;;;5073385;28;20439;-59
2021/08/02 08:14:32;;;;;;;5.60;2.00;;;;;;;;;;5073209;28;20454;-59
2021/08/02 08:16:59;;;;;;;4.20;1.30;;;;;;;;;;5073116;28;20448;-59
2021/08/02 08:19:27;;;;;;;3.47;1.50;;;;;;;;;;5072921;28;20788;-60
2021/08/02 08:21:55;;;;;;;2.80;1.60;;;;;;;;;;5073288;28;20931;-59
2021/08/02 08:24:22;;;;;;;5.70;1.50;;;;;;;;;;5072904;28;20446;-59
2021/08/02 08:26:50;;;;;;;3.70;1.50;;;;;;;;;;5072608;28;20447;-59
2021/08/02 08:29:18;;;;;;;2.63;1.40;;;;;;;;;;5072933;28;21091;-59
2021/08/02 08:31:45;;;;;;;6.60;1.30;;;;;;;;;;5073126;28;20463;-61
2021/08/02 08:34:12;;;;;;;2.07;1.23;;;;;;;;;;5073187;28;20447;-60
2021/08/02 08:36:39;;;;;;;8.80;1.80;;;;;;;;;;5072763;28;20473;-61
2021/08/02 08:39:07;;;;;;;5.47;1.87;;;;;;;;;;5074017;28;20695;-58
2021/08/02 08:41:35;;;;;;;3.80;1.60;;;;;;;;;;5073424;28;20470;-59
2021/08/02 08:44:03;;;;;;;5.40;1.53;;;;;;;;;;5073896;28;20528;-59
2021/08/02 08:46:31;;;;;;;2.93;1.30;;;;;;;;;;5074229;28;20442;-58
2021/08/02 08:48:58;;;;;;;2.70;1.27;;;;;;;;;;5073407;28;20874;-59
2021/08/02 08:51:26;;;;;;;5.23;1.50;;;;;;;;;;5073280;28;20471;-58
2021/08/02 08:53:54;;;;;;;6.83;1.70;;;;;;;;;;5074416;28;20443;-60
2021/08/02 08:56:21;;;;;;;2.70;1.47;;;;;;;;;;5076817;28;20443;-60
2021/08/02 08:58:48;;;;;;;3.53;1.20;;;;;;;;;;5076947;28;20455;-59
2021/08/02 09:01:26;;;;;;;3.97;1.17;;;;;;;;;;5076688;28;20467;-60
2021/08/02 09:03:53;;;;;;;3.53;1.60;;;;;;;;;;5076625;28;20431;-60
2021/08/02 09:06:21;;;;;;;3.07;1.87;;;;;;;;;;5076358;28;20451;-59
2021/08/02 09:08:48;;;;;;;3.30;1.60;;;;;;;;;;5076217;28;20463;-59
2021/08/02 09:11:19;;;;;;;2.80;1.40;;;;;;;;;;5077015;28;20466;-60
2021/08/02 09:13:47;;;;;;;5.50;1.83;;;;;;;;;;5076429;22;20496;-55
2021/08/02 09:16:15;;;;;;;2.03;1.00;;;;;;;;;;5035971;28;20506;-55
2021/08/02 09:18:46;;;;;;;5.50;1.70;;;;;;;;;;5035870;28;20841;-55
2021/08/02 09:21:14;;;;;;;1.80;1.23;;;;;;;;;;5035524;28;20528;-55
2021/08/02 09:23:48;;;;;;;3.53;1.60;;;;;;;;;;5035385;28;20992;-54
2021/08/02 09:26:15;;;;;;;3.70;1.57;;;;;;;;;;5035531;28;21005;-55
2021/08/02 09:28:52;;;;;;;2.57;1.47;;;;;;;;;;5035878;28;20484;-57
2021/08/02 09:31:19;;;;;;;3.17;1.50;;;;;;;;;;5035470;28;20937;-54
2021/08/02 09:33:48;;;;;;;3.87;1.97;;;;;;;;;;5035333;28;20515;-56
2021/08/02 09:36:16;;;;;;;2.40;1.30;;;;;;;;;;5035681;28;20445;-56
2021/08/02 09:38:43;;;;;;;2.07;1.17;;;;;;;;;;5036093;28;20477;-57
2021/08/02 09:41:19;;;;;;;3.43;1.20;;;;;;;;;;5035674;28;20446;-55
2021/08/02 09:43:51;;;;;;;6.00;1.77;;;;;;;;;;5035464;28;20793;-56
2021/08/02 09:46:18;;;;;;;7.73;1.53;;;;;;;;;;5035245;28;20525;-55
2021/08/02 09:48:48;;;;;;;1.60;1.23;;;;;;;;;;5034944;28;20891;-57
2021/08/02 09:51:16;;;;;;;1.60;0.90;;;;;;;;;;5035002;28;20447;-56
2021/08/02 09:53:44;;;;;;;3.03;1.40;;;;;;;;;;5035168;28;20819;-54
2021/08/02 09:56:12;;;;;;;3.63;1.13;;;;;;;;;;5035192;28;20444;-55
2021/08/02 09:58:41;;;;;;;3.33;0.90;;;;;;;;;;5034618;28;20856;-54
2021/08/02 10:01:09;;;;;;;2.67;1.20;;;;;;;;;;5034947;28;20446;-56
2021/08/02 10:03:36;;;;;;;2.27;1.57;;;;;;;;;;5033696;28;21004;-55
2021/08/02 10:06:05;;;;;;;1.63;1.00;;;;;;;;;;5034476;28;20507;-53
2021/08/02 10:08:34;;;;;;;2.33;1.57;;;;;;;;;;5034457;28;20527;-56
2021/08/02 10:11:01;;;;;;;7.10;1.50;;;;;;;;;;5034830;28;20532;-57
2021/08/02 10:13:29;;;;;;;2.47;1.40;;;;;;;;;;5034150;28;20904;-56
2021/08/02 10:15:59;;;;;;;4.00;1.20;;;;;;;;;;5034518;28;20529;-56
2021/08/02 10:18:27;;;;;;;5.80;1.60;;;;;;;;;;5034760;28;20528;-57
2021/08/02 10:21:04;;;;;;;3.00;1.27;;;;;;;;;;5034265;28;20632;-55
2021/08/02 10:23:32;;;;;;;6.40;1.70;;;;;;;;;;5034544;28;20460;-56
2021/08/02 10:26:00;;;;;;;5.07;1.63;;;;;;;;;;5034159;28;20995;-55
2021/08/02 10:28:27;;;;;;;2.80;1.13;;;;;;;;;;5034465;28;20476;-54
2021/08/02 10:31:02;;;;;;;3.43;1.50;;;;;;;;;;5034245;28;20528;-54
2021/08/02 10:33:33;;;;;;;4.90;1.33;;;;;;;;;;5033989;28;20464;-55
2021/08/02 10:36:11;;;;;;;5.23;1.57;;;;;;;;;;5034361;28;20445;-56
2021/08/02 10:38:42;;;;;;;4.03;1.30;;;;;;;;;;5035091;28;20429;-57
2021/08/02 10:41:09;;;;;;;3.70;1.80;;;;;;;;;;5034107;28;20439;-56
2021/08/02 10:43:37;;;;;;;5.47;1.60;;;;;;;;;;5033768;28;20481;-55
2021/08/02 10:46:16;;;;;;;4.70;2.20;;;;;;;;;;5034340;28;20507;-55
2021/08/02 10:48:44;;;;;;;3.87;1.60;;;;;;;;;;5033976;28;20584;-55
2021/08/02 10:51:12;;;;;;;2.53;1.40;;;;;;;;;;5033602;28;20536;-55
2021/08/02 10:53:39;;;;;;;2.67;1.27;;;;;;;;;;5033619;28;20474;-55
2021/08/02 10:56:08;;;;;;;2.67;1.30;;;;;;;;;;5033747;28;20453;-56
2021/08/02 10:58:38;;;;;;;4.70;1.57;;;;;;;;;;5034057;28;20497;-55
2021/08/02 11:01:06;;;;;;;2.30;1.57;;;;;;;;;;5034151;28;20449;-56
2021/08/02 11:03:37;;;;;;;2.70;1.30;;;;;;;;;;5033768;28;20471;-56
2021/08/02 11:06:09;;;;;;;2.93;1.40;;;;;;;;;;5034031;28;20512;-54
2021/08/02 11:08:44;;;;;;;2.43;1.73;;;;;;;;;;5033066;28;20505;-55
2021/08/02 11:11:12;;;;;;;3.33;1.30;;;;;;;;;;5033463;28;20430;-55
2021/08/02 11:13:40;;;;;;;2.10;1.40;;;;;;;;;;5033534;28;20529;-54
2021/08/02 11:16:10;;;;;;;3.13;1.40;;;;;;;;;;5033027;28;20540;-54
2021/08/02 11:18:37;;;;;;;2.40;1.10;;;;;;;;;;5033282;28;20919;-56
2021/08/02 11:21:04;;;;;;;4.20;1.57;;;;;;;;;;5033494;28;20514;-55
2021/08/02 11:23:32;;;;;;;1.90;1.10;;;;;;;;;;5033311;28;20471;-56
2021/08/02 11:26:10;;;;;;;2.00;1.40;;;;;;;;;;5033569;28;20454;-55
2021/08/02 11:28:42;;;;;;;3.50;1.57;;;;;;;;;;5033210;28;20468;-56
2021/08/02 11:31:10;;;;;;;2.40;1.60;;;;;;;;;;5033124;28;20435;-55
2021/08/02 11:33:38;;;;;;;3.20;1.57;;;;;;;;;;5032952;28;21003;-54
2021/08/02 11:36:06;;;;;;;3.57;1.30;;;;;;;;;;5032788;28;20942;-55
2021/08/02 11:38:40;;;;;;;2.53;1.30;;;;;;;;;;5032930;28;20939;-54
2021/08/02 11:41:08;;;;;;;1.60;1.20;;;;;;;;;;5033156;28;20442;-53
2021/08/02 11:43:40;;;;;;;5.20;1.40;;;;;;;;;;5033159;28;20460;-55
2021/08/02 11:46:09;;;;;;;2.07;1.20;;;;;;;;;;5032652;28;20451;-54
2021/08/02 11:48:36;;;;;;;1.90;1.43;;;;;;;;;;5033020;28;20456;-52
2021/08/02 11:51:05;;;;;;;5.90;1.30;;;;;;;;;;5033300;28;20442;-54
2021/08/02 11:53:35;;;;;;;3.03;1.20;;;;;;;;;;5032755;28;20974;-56
2021/08/02 11:56:03;;;;;;;4.67;1.40;;;;;;;;;;5033073;28;20861;-54
2021/08/02 11:58:43;;;;;;;4.43;1.63;;;;;;;;;;5032771;28;20957;-54
2021/08/02 12:01:12;;;;;;;1.80;1.40;;;;;;;;;;5032655;28;20516;-54
2021/08/02 12:03:40;;;;;;;3.40;1.50;;;;;;;;;;5032706;28;20462;-55
2021/08/02 12:06:08;;;;;;;3.30;1.43;;;;;;;;;;5032070;28;20446;-52
2021/08/02 12:08:36;;;;;;;2.90;1.10;;;;;;;;;;5032089;28;20446;-54
2021/08/02 12:11:04;;;;;;;5.20;1.60;;;;;;;;;;5032525;28;21008;-54
2021/08/02 12:13:41;;;;;;;5.20;1.77;;;;;;;;;;5032334;28;20490;-54
2021/08/02 12:16:09;;;;;;;3.53;1.50;;;;;;;;;;5032851;28;20473;-54
2021/08/02 12:18:38;;;;;;;2.07;1.70;;;;;;;;;;5032583;28;20505;-54
2021/08/02 12:21:13;;;;;;;4.00;1.20;;;;;;;;;;5033004;28;20855;-54
2021/08/02 12:23:40;;;;;;;3.00;1.20;;;;;;;;;;5032418;28;20538;-53
2021/08/02 12:26:17;;;;;;;3.17;1.33;;;;;;;;;;5032320;28;20997;-54
2021/08/02 12:28:45;;;;;;;2.97;1.30;;;;;;;;;;5034914;28;20452;-53
2021/08/02 12:31:16;;;;;;;2.10;1.23;;;;;;;;;;5036703;28;20461;-54
2021/08/02 12:33:46;;;;;;;3.37;1.30;;;;;;;;;;5036426;28;20558;-54
2021/08/02 12:36:13;;;;;;;2.40;1.37;;;;;;;;;;5036871;28;20638;-54
2021/08/02 12:38:44;;;;;;;3.83;1.67;;;;;;;;;;5036485;28;20502;-54
2021/08/02 12:41:11;;;;;;;3.30;1.77;;;;;;;;;;5037372;28;20449;-53
2021/08/02 12:43:39;;;;;;;2.90;1.40;;;;;;;;;;5036654;28;20618;-55
2021/08/02 12:46:06;;;;;;;2.10;1.10;;;;;;;;;;5036417;28;20532;-55
2021/08/02 12:48:33;;;;;;;4.13;1.40;;;;;;;;;;5036791;28;20518;-54
2021/08/02 12:51:02;;;;;;;3.60;1.63;;;;;;;;;;5037405;28;20476;-55
2021/08/02 12:53:29;;;;;;;2.67;1.70;;;;;;;;;;5037062;28;20464;-55
2021/08/02 12:55:57;;;;;;;1.80;1.17;;;;;;;;;;5035937;28;20510;-55
2021/08/02 12:58:24;;;;;;;2.43;1.23;;;;;;;;;;5036041;28;20501;-54
2021/08/02 13:00:51;;;;;;;3.43;1.57;;;;;;;;;;5035996;28;20510;-55
2021/08/02 13:03:19;;;;;;;2.60;1.40;;;;;;;;;;5036080;28;20472;-54
2021/08/02 13:05:46;;;;;;;2.50;1.23;;;;;;;;;;5035835;28;20456;-54
2021/08/02 13:08:15;;;;;;;2.60;1.40;;;;;;;;;;5035853;28;20518;-56
2021/08/02 13:10:42;;;;;;;4.47;1.60;;;;;;;;;;5036216;28;20485;-55
2021/08/02 13:13:10;;;;;;;1.63;1.27;;;;;;;;;;5035800;28;20469;-54
2021/08/02 13:15:37;;;;;;;2.27;1.10;;;;;;;;;;5035981;28;20447;-54
2021/08/02 13:18:04;;;;;;;2.60;1.07;;;;;;;;;;5035557;28;20447;-55
2021/08/02 13:20:32;;;;;;;4.20;1.60;;;;;;;;;;5035526;28;20987;-54
2021/08/02 13:23:04;;;;;;;12.33;3.43;;;;;;;;;;5035609;28;20525;-55
2021/08/02 13:28:18;;;;;;;1.80;1.50;;;;;;;;;;5035890;28;20401;-54
2021/08/02 13:30:45;;;;;;;3.03;2.20;;;;;;;;;;5035384;28;20480;-55
2021/08/02 13:33:13;;;;;;;1.70;1.20;;;;;;;;;;5035534;28;20885;-55
2021/08/02 13:35:40;;;;;;;4.03;1.60;;;;;;;;;;5035450;28;20883;-55
2021/08/02 13:38:07;;;;;;;1.97;1.00;;;;;;;;;;5035320;28;20451;-54
2021/08/02 13:40:36;;;;;;;2.93;1.43;;;;;;;;;;5035112;28;20446;-54
2021/08/02 13:43:03;;;;;;;3.00;1.47;;;;;;;;;;5035355;28;20879;-51
2021/08/02 13:45:31;;;;;;;2.30;1.60;;;;;;;;;;5034964;28;20505;-54
2021/08/02 13:47:58;;;;;;;4.33;1.40;;;;;;;;;;5035000;28;20452;-56
2021/08/02 13:50:26;;;;;;;4.50;1.60;;;;;;;;;;5035074;28;20484;-55
2021/08/02 13:52:53;;;;;;;2.40;1.40;;;;;;;;;;5035223;28;20471;-55
2021/08/02 13:55:20;;;;;;;2.83;1.53;;;;;;;;;;5035059;28;20863;-55
2021/08/02 13:57:49;;;;;;;3.80;1.60;;;;;;;;;;5035023;28;20447;-55
2021/08/02 14:00:17;;;;;;;1.20;1.03;;;;;;;;;;5034905;28;20444;-55
2021/08/02 14:02:44;;;;;;;2.63;1.10;;;;;;;;;;5034754;28;20894;-54
2021/08/02 14:05:12;;;;;;;2.50;1.43;;;;;;;;;;5034472;28;20456;-57
2021/08/02 14:07:39;;;;;;;1.90;1.30;;;;;;;;;;5034879;28;20526;-55
2021/08/02 14:10:06;;;;;;;2.27;1.33;;;;;;;;;;5034782;28;20474;-55
2021/08/02 14:12:35;;;;;;;4.50;1.23;;;;;;;;;;5034292;28;20987;-52
2021/08/02 14:15:06;;;;;;;3.27;1.30;;;;;;;;;;5034193;28;20845;-55
2021/08/02 14:17:37;;;;;;;1.57;1.27;;;;;;;;;;5034352;28;20539;-55
2021/08/02 14:20:05;;;;;;;4.20;1.30;;;;;;;;;;5034747;28;20490;-55
2021/08/02 14:22:33;;;;;;;2.97;1.57;;;;;;;;;;5034659;28;20479;-56
2021/08/02 14:25:01;;;;;;;3.27;1.60;;;;;;;;;;5034290;28;20959;-56
2021/08/02 14:27:30;;;;;;;2.20;1.40;;;;;;;;;;5034464;28;20456;-57
2021/08/02 14:29:59;;;;;;;2.83;1.60;;;;;;;;;;5034101;28;20932;-56
2021/08/02 14:32:28;;;;;;;5.13;2.10;;;;;;;;;;5034135;28;20476;-57
2021/08/02 14:34:55;;;;;;;2.90;1.30;;;;;;;;;;5034289;28;20450;-57
2021/08/02 14:37:23;;;;;;;2.60;1.60;;;;;;;;;;5034548;28;20452;-56
2021/08/02 14:39:50;;;;;;;3.00;1.73;;;;;;;;;;5033937;28;20447;-56
2021/08/02 14:42:18;;;;;;;2.63;1.93;;;;;;;;;;5034207;28;20471;-57
2021/08/02 14:44:45;;;;;;;6.23;2.20;;;;;;;;;;5035214;28;20534;-56
2021/08/02 14:47:13;;;;;;;2.80;1.40;;;;;;;;;;5034234;28;20456;-56
2021/08/02 14:49:47;;;;;;;2.90;1.30;;;;;;;;;;5034742;28;20483;-53
2021/08/02 14:52:15;;;;;;;3.70;1.60;;;;;;;;;;5033139;28;20553;-55
2021/08/02 14:54:45;;;;;;;2.67;1.23;;;;;;;;;;5034182;28;20512;-54
2021/08/02 14:57:14;;;;;;;3.47;1.40;;;;;;;;;;5033990;28;20996;-56